KHEI

Hettinger Municipal Airport

Hettinger, North Dakota, USA
METAR KHEI 231053Z AUTO 12006KT 10SM CLR M01/M06 A3029 RMK AO2 SLP272 T10111056
Observed Flight Rules
Oct-23 @ 10:53 UTC (56 minutes ago) Visual Flight Rules
Wind Visibility Clouds
120° at 6 knots 10 miles
  • Clear skies
Temperatures Readings
Current -1°C / 30°F
Dewpoint -6°C / 21°F
Humidity 69%
Altimeter 30.29" Hg
Pressure 1027.2 hPa
Elevation 828
METAR KHEI 231053Z AUTO 12006KT 10SM CLR M01/M06 A3029 RMK AO2 SLP272 T10111056
Observed Flight Rules
Oct-23 @ 10:53 UTC
(56 minutes ago)
VFR
Wind Visibility
120° at 6 knots 10 miles
Clouds
  • Clear skies
Temperature Dewpoint
-1°C / 30°F -6°C / 21°F
Humidity Altimeter Pressure
69% 30.29" Hg 1027.2 hPa